Time;durP1;ratioP1;P1;durP2;ratioP2;P2;SDS_P1;SDS_P2;PMS_P1;PMS_P2;Temp;Humidity;BMP_temperature;BMP_pressure;BME280_temperature;BME280_humidity;BME280_pressure;Samples;Min_cycle;Max_cycle;Signal;HPM_P1;HPM_P2
2023/07/26 00:00:05;;;;;;;5.00;1.70;;;;;;;12.75;100.00;97962.91;15272870;19;20011;-53
2023/07/26 00:05:35;;;;;;;6.55;1.55;;;;;;;12.77;100.00;97965.41;15270463;19;20464;-56
2023/07/26 00:10:59;;;;;;;7.10;1.83;;;;;;;12.79;100.00;97961.50;15272095;19;20015;-53
2023/07/26 00:16:24;;;;;;;8.43;1.70;;;;;;;12.81;100.00;97960.50;15271382;19;20018;-53
2023/07/26 00:21:51;;;;;;;6.70;1.50;;;;;;;12.75;100.00;97953.97;15269412;19;20029;-52
2023/07/26 00:27:17;;;;;;;7.03;1.50;;;;;;;12.72;100.00;97919.19;15271337;19;20014;-54
2023/07/26 00:32:41;;;;;;;7.22;1.40;;;;;;;12.72;100.00;97911.09;15269547;19;20011;-52
2023/07/26 00:38:08;;;;;;;4.32;1.25;;;;;;;12.66;100.00;97879.38;15264286;19;20025;-54
2023/07/26 00:43:35;;;;;;;3.83;1.30;;;;;;;12.59;100.00;97861.25;15273412;19;20013;-52
2023/07/26 00:49:01;;;;;;;6.97;1.52;;;;;;;12.53;100.00;97871.97;15266865;19;20042;-53
2023/07/26 00:54:31;;;;;;;5.90;1.20;;;;;;;12.46;100.00;97869.16;15265674;19;20022;-72
2023/07/26 00:59:56;;;;;;;5.80;1.38;;;;;;;12.44;100.00;97887.41;15273588;19;20045;-72
2023/07/26 01:05:22;;;;;;;6.40;1.50;;;;;;;12.40;100.00;97897.75;15288740;19;20018;-71
2023/07/26 01:10:56;;;;;;;4.97;1.40;;;;;;;12.35;100.00;97919.06;15285589;19;20018;-71
2023/07/26 01:16:22;;;;;;;8.07;1.60;;;;;;;12.31;100.00;97917.78;15284561;19;20114;-71
2023/07/26 01:21:49;;;;;;;4.95;1.20;;;;;;;12.27;100.00;97917.31;15279936;19;20010;-71
2023/07/26 01:27:15;;;;;;;5.35;1.40;;;;;;;12.24;100.00;97925.78;15282336;19;20007;-71
2023/07/26 01:32:41;;;;;;;4.93;1.30;;;;;;;12.21;100.00;97939.66;15282071;19;20010;-71
2023/07/26 01:38:10;;;;;;;4.53;1.20;;;;;;;12.18;100.00;97946.28;15278615;19;20044;-72
2023/07/26 01:43:35;;;;;;;5.68;1.40;;;;;;;12.17;100.00;97959.97;15277992;19;20393;-72
2023/07/26 01:48:59;;;;;;;6.93;1.30;;;;;;;12.15;100.00;97959.31;15283317;19;20015;-72
2023/07/26 01:54:27;;;;;;;2.45;1.00;;;;;;;12.14;100.00;97965.72;15284548;19;20021;-72
2023/07/26 01:59:52;;;;;;;3.78;1.20;;;;;;;12.14;100.00;97979.22;15281559;19;20354;-72
2023/07/26 02:05:23;;;;;;;4.90;1.30;;;;;;;12.11;100.00;97971.47;15284588;19;20094;-71
2023/07/26 02:10:50;;;;;;;6.00;1.23;;;;;;;12.11;100.00;97982.28;15271730;19;20421;-72
2023/07/26 02:16:15;;;;;;;4.18;1.20;;;;;;;12.14;100.00;97981.94;15283244;19;20067;-71
2023/07/26 02:21:39;;;;;;;4.47;1.25;;;;;;;12.12;100.00;97974.00;15281943;19;20524;-72
2023/07/26 02:27:07;;;;;;;4.22;1.10;;;;;;;12.12;100.00;97983.97;15282430;19;20070;-71
2023/07/26 02:32:31;;;;;;;4.53;1.05;;;;;;;12.11;100.00;97991.22;15277601;19;20368;-72
2023/07/26 02:37:56;;;;;;;8.52;1.33;;;;;;;12.10;100.00;98002.22;15306507;19;20046;-71
2023/07/26 02:43:23;;;;;;;6.03;1.33;;;;;;;12.08;100.00;98015.03;15319670;19;20010;-72
2023/07/26 02:48:58;;;;;;;8.05;1.60;;;;;;;12.04;100.00;98035.34;15336402;19;20031;-77
2023/07/26 02:54:22;;;;;;;4.80;1.50;;;;;;;12.00;100.00;98051.03;15295882;19;20002;-76
2023/07/26 02:59:56;;;;;;;4.05;1.40;;;;;;;11.94;100.00;98063.34;15279537;19;20014;-76
2023/07/26 03:05:21;;;;;;;6.95;1.63;;;;;;;11.92;100.00;98072.66;15278801;19;20038;-87
2023/07/26 03:10:47;;;;;;;5.75;1.40;;;;;;;11.91;100.00;98093.44;15305385;19;20509;-87
2023/07/26 03:16:18;;;;;;;4.85;1.30;;;;;;;11.86;100.00;98104.75;15301551;19;20014;-88
2023/07/26 03:21:52;;;;;;;5.22;1.42;;;;;;;11.84;100.00;98092.44;15301248;19;20517;-86
2023/07/26 03:27:18;;;;;;;5.65;1.30;;;;;;;11.81;100.00;98103.63;15301233;19;20014;-86
2023/07/26 03:32:45;;;;;;;5.55;1.33;;;;;;;11.72;100.00;98103.63;15300964;19;20331;-87
2023/07/26 03:38:16;;;;;;;3.60;1.25;;;;;;;11.65;100.00;98101.81;15296437;19;20015;-86
2023/07/26 03:43:38;;;;;;;4.95;1.40;;;;;;;11.60;100.00;98107.75;15268134;19;20010;-86
2023/07/26 03:49:10;;;;;;;3.35;1.20;;;;;;;11.53;100.00;98106.78;15291891;19;20836;-86
2023/07/26 03:54:40;;;;;;;8.93;1.60;;;;;;;11.47;100.00;98093.97;15296295;19;20021;-87
2023/07/26 04:00:11;;;;;;;2.60;1.25;;;;;;;11.39;100.00;98095.69;15296578;19;20010;-86
2023/07/26 04:05:37;;;;;;;4.10;1.30;;;;;;;11.36;100.00;98103.31;15293149;19;20014;-86
2023/07/26 04:11:05;;;;;;;5.35;1.17;;;;;;;11.32;100.00;98099.25;15297000;19;20022;-86
2023/07/26 04:16:31;;;;;;;4.93;1.27;;;;;;;11.30;100.00;98109.38;15299559;19;20022;-87
2023/07/26 04:22:01;;;;;;;4.55;1.25;;;;;;;11.23;100.00;98120.03;15288186;19;20028;-86
2023/07/26 04:27:25;;;;;;;4.82;1.23;;;;;;;11.22;100.00;98123.75;15292120;19;20031;-86
2023/07/26 04:32:53;;;;;;;4.63;1.20;;;;;;;11.23;100.00;98138.91;15290646;19;20015;-86
2023/07/26 04:38:22;;;;;;;5.03;1.38;;;;;;;11.25;100.00;98136.88;15299951;19;20014;-85
2023/07/26 04:43:47;;;;;;;6.82;1.30;;;;;;;11.25;100.00;98139.56;15304230;19;20014;-86
2023/07/26 04:49:11;;;;;;;4.32;1.15;;;;;;;11.27;100.00;98140.25;15298869;19;20018;-86
2023/07/26 04:54:39;;;;;;;7.85;1.30;;;;;;;11.29;100.00;98140.09;15307341;19;20024;-86
2023/07/26 05:00:04;;;;;;;3.83;1.10;;;;;;;11.31;100.00;98156.91;15303343;19;20014;-86
2023/07/26 05:05:29;;;;;;;3.10;1.00;;;;;;;11.33;100.00;98158.44;15302952;19;20036;-88
2023/07/26 05:11:00;;;;;;;4.13;1.15;;;;;;;11.37;100.00;98154.38;15307703;19;20620;-86
2023/07/26 05:16:20;;;;;;;2.57;1.00;;;;;;;11.40;100.00;98148.63;15304252;19;20346;-86
2023/07/26 05:21:45;;;;;;;4.10;1.10;;;;;;;11.46;100.00;98144.41;15299997;19;20291;-86
2023/07/26 05:27:15;;;;;;;3.45;1.05;;;;;;;11.53;100.00;98131.88;15322436;19;20039;-86
2023/07/26 05:32:41;;;;;;;4.47;0.80;;;;;;;11.64;100.00;98113.66;15307991;19;20019;-86
2023/07/26 05:38:05;;;;;;;3.67;1.02;;;;;;;11.77;100.00;98122.00;15302357;19;20018;-86
2023/07/26 05:43:32;;;;;;;3.35;1.05;;;;;;;11.91;100.00;98123.13;15300193;19;20011;-86
2023/07/26 05:48:57;;;;;;;4.75;1.00;;;;;;;12.05;100.00;98110.75;15294699;19;20027;-86
2023/07/26 05:54:23;;;;;;;3.95;1.08;;;;;;;12.20;100.00;98104.59;15298531;19;20013;-86
2023/07/26 05:59:50;;;;;;;2.92;0.90;;;;;;;12.35;100.00;98080.31;15291603;19;20014;-86
2023/07/26 06:05:22;;;;;;;3.05;0.90;;;;;;;12.43;100.00;98046.00;15295010;19;20033;-86
2023/07/26 06:10:47;;;;;;;3.15;1.08;;;;;;;12.54;100.00;98020.38;15300239;19;20078;-86
2023/07/26 06:16:15;;;;;;;3.03;0.90;;;;;;;12.62;100.00;98024.88;15295006;19;20773;-86
2023/07/26 06:21:39;;;;;;;3.53;1.10;;;;;;;12.70;100.00;98021.25;15295841;19;20082;-86
2023/07/26 06:27:04;;;;;;;4.68;1.02;;;;;;;12.68;100.00;97990.84;15298082;19;20021;-87
2023/07/26 06:32:31;;;;;;;3.97;0.90;;;;;;;12.67;100.00;97999.97;15295129;19;20010;-85
2023/07/26 06:37:57;;;;;;;4.68;0.90;;;;;;;12.61;100.00;97998.84;15300738;19;20020;-85
2023/07/26 06:43:15;;;;;;;3.97;1.10;;;;;;;12.73;100.00;98019.00;15291917;19;20010;-86
2023/07/26 06:48:43;;;;;;;3.85;0.82;;;;;;;12.87;100.00;98008.38;15291375;19;20018;-86
2023/07/26 06:54:09;;;;;;;2.88;0.90;;;;;;;13.05;100.00;98002.59;15292270;19;20031;-86
2023/07/26 06:59:33;;;;;;;1.63;0.80;;;;;;;13.22;100.00;97995.97;15287226;19;20020;-86
2023/07/26 07:05:01;;;;;;;4.43;0.88;;;;;;;13.40;100.00;97992.03;15288644;19;20014;-87
2023/07/26 07:10:32;;;;;;;1.73;0.77;;;;;;;13.59;100.00;97987.88;15290454;19;20473;-86
2023/07/26 07:15:57;;;;;;;2.47;0.80;;;;;;;13.79;100.00;97979.13;15292668;19;20447;-86
2023/07/26 07:21:24;;;;;;;1.58;0.70;;;;;;;13.98;100.00;97983.06;15287279;19;20022;-86
2023/07/26 07:26:50;;;;;;;2.97;0.68;;;;;;;14.08;100.00;97975.44;15286984;19;20623;-86
2023/07/26 07:32:16;;;;;;;2.50;0.60;;;;;;;14.15;100.00;97968.22;15287518;19;20073;-86
2023/07/26 07:37:44;;;;;;;3.67;0.68;;;;;;;14.24;100.00;97976.22;15286782;19;20015;-85
2023/07/26 07:43:08;;;;;;;2.50;0.70;;;;;;;14.32;100.00;97974.19;15286217;19;20014;-86
2023/07/26 07:48:36;;;;;;;1.27;0.60;;;;;;;14.25;100.00;97975.19;15283405;19;20017;-85
2023/07/26 07:54:03;;;;;;;2.15;0.60;;;;;;;14.26;100.00;97969.56;15284642;19;20007;-86
2023/07/26 07:59:28;;;;;;;1.52;0.57;;;;;;;14.38;100.00;97980.72;15285804;19;20395;-85
2023/07/26 08:04:52;;;;;;;2.22;0.68;;;;;;;14.52;100.00;97984.34;15284456;19;20021;-85
2023/07/26 08:10:27;;;;;;;5.03;0.80;;;;;;;14.58;100.00;97977.28;15288462;19;20101;-85
2023/07/26 08:15:52;;;;;;;1.48;0.47;;;;;;;14.67;100.00;97978.84;15308668;19;20010;-86
2023/07/26 08:21:30;;;;;;;1.77;0.73;;;;;;;14.93;100.00;97988.19;15362039;19;20006;-86
2023/07/26 08:27:14;;;;;;;2.70;0.70;;;;;;;14.93;100.00;97980.88;15368997;19;20019;-86
2023/07/26 08:32:56;;;;;;;4.05;0.60;;;;;;;14.94;100.00;97970.88;15369360;19;20003;-85
2023/07/26 08:38:24;;;;;;;2.50;0.70;;;;;;;15.20;100.00;97972.88;15291920;19;20010;-85
2023/07/26 08:43:49;;;;;;;1.77;0.40;;;;;;;15.33;100.00;97965.81;15283515;19;20034;-85
2023/07/26 08:49:15;;;;;;;0.77;0.50;;;;;;;15.52;100.00;97956.06;15285359;19;20011;-85
2023/07/26 08:54:42;;;;;;;1.42;0.60;;;;;;;15.47;100.00;97958.53;15283969;19;20022;-86
2023/07/26 09:00:11;;;;;;;4.45;0.70;;;;;;;15.38;100.00;97956.03;15281800;19;20014;-85
2023/07/26 09:05:37;;;;;;;2.13;0.50;;;;;;;15.22;100.00;97964.53;15281647;19;20392;-85
2023/07/26 09:11:23;;;;;;;1.58;0.60;;;;;;;15.05;100.00;97964.06;15281287;19;20371;-86
2023/07/26 09:16:49;;;;;;;1.33;0.65;;;;;;;15.20;100.00;97972.03;15281486;19;20021;-86
2023/07/26 09:22:15;;;;;;;2.72;0.70;;;;;;;15.39;100.00;97968.56;15290661;19;20014;-87
2023/07/26 09:28:01;;;;;;;1.85;0.60;;;;;;;15.76;100.00;97953.81;15298011;19;20025;-85
2023/07/26 09:33:28;;;;;;;4.22;0.70;;;;;;;15.77;100.00;97948.16;15302342;19;20017;-86
2023/07/26 09:38:53;;;;;;;2.75;0.80;;;;;;;15.84;100.00;97940.03;15326035;19;20018;-59
2023/07/26 09:44:22;;;;;;;4.78;0.70;;;;;;;15.90;100.00;97941.13;15314498;19;20026;-59
2023/07/26 09:49:58;;;;;;;1.85;0.80;;;;;;;15.70;100.00;97945.44;15287157;19;20010;-58
2023/07/26 09:55:28;;;;;;;1.77;0.60;;;;;;;15.84;100.00;97948.19;15282207;19;20014;-59
2023/07/26 10:00:57;;;;;;;2.13;0.75;;;;;;;16.00;100.00;97955.97;15282545;19;20015;-58
2023/07/26 10:06:23;;;;;;;3.22;0.80;;;;;;;15.85;100.00;97964.31;15283578;19;20014;-57
2023/07/26 10:11:50;;;;;;;2.72;0.73;;;;;;;15.51;100.00;97959.81;15291271;19;20093;-59
2023/07/26 10:17:21;;;;;;;1.45;0.70;;;;;;;15.31;100.00;97971.47;15266536;19;20010;-58
2023/07/26 10:22:48;;;;;;;1.92;0.65;;;;;;;15.28;100.00;97969.16;15274386;19;20044;-58
2023/07/26 10:28:14;;;;;;;1.35;0.60;;;;;;;15.27;100.00;97953.91;15272416;19;20647;-59
2023/07/26 10:33:41;;;;;;;10.20;0.50;;;;;;;14.56;100.00;98011.88;15279166;19;20040;-57
2023/07/26 10:39:09;;;;;;;2.28;0.40;;;;;;;13.20;100.00;98011.56;15278373;19;20025;-58
2023/07/26 10:44:33;;;;;;;0.70;0.52;;;;;;;12.40;100.00;98005.00;15275573;19;20019;-57
2023/07/26 10:50:07;;;;;;;0.85;0.70;;;;;;;12.31;100.00;98017.72;15276638;19;20022;-59
2023/07/26 10:55:34;;;;;;;1.10;0.80;;;;;;;12.26;100.00;98020.97;15278555;19;20015;-58
2023/07/26 11:01:03;;;;;;;3.63;1.33;;;;;;;12.17;100.00;98035.59;15279855;19;20565;-56
2023/07/26 11:06:30;;;;;;;2.38;0.90;;;;;;;12.12;100.00;98046.06;15277173;19;20698;-54
2023/07/26 11:11:59;;;;;;;2.00;1.00;;;;;;;12.12;100.00;98040.66;15278950;19;20106;-59
2023/07/26 11:17:23;;;;;;;1.00;1.00;;;;;;;12.06;100.00;98042.22;15273802;19;20032;-54
2023/07/26 11:22:51;;;;;;;3.65;1.00;;;;;;;12.26;100.00;98023.69;15273687;19;20021;-57
2023/07/26 11:28:15;;;;;;;1.23;0.90;;;;;;;12.60;100.00;98014.25;15275050;19;20025;-55
2023/07/26 11:33:41;;;;;;;0.95;0.93;;;;;;;13.00;100.00;98007.72;15278771;19;20023;-56
2023/07/26 11:39:15;;;;;;;0.80;0.80;;;;;;;13.37;100.00;97992.38;15274343;19;20428;-56
2023/07/26 11:44:40;;;;;;;1.48;0.70;;;;;;;13.71;100.00;97988.22;15271494;19;20048;-56
2023/07/26 11:50:04;;;;;;;1.33;0.80;;;;;;;14.08;100.00;97975.44;15276585;19;20026;-57
2023/07/26 11:55:33;;;;;;;1.73;0.70;;;;;;;14.50;100.00;97959.31;15268439;19;20019;-57
2023/07/26 12:00:59;;;;;;;1.40;0.68;;;;;;;15.02;100.00;97956.31;15275150;19;20022;-57
2023/07/26 12:06:31;;;;;;;3.22;0.68;;;;;;;15.52;100.00;97962.31;15273361;19;20363;-57
2023/07/26 12:12:01;;;;;;;1.63;0.70;;;;;;;15.67;100.00;97961.31;15274187;19;20011;-56
2023/07/26 12:17:26;;;;;;;1.33;0.68;;;;;;;15.61;100.00;97960.25;15273106;19;20098;-57
2023/07/26 12:23:00;;;;;;;2.20;0.60;;;;;;;15.55;100.00;97961.09;15274445;19;20078;-58
2023/07/26 12:28:28;;;;;;;2.97;0.45;;;;;;;15.49;100.00;97951.03;15271824;19;20418;-57
2023/07/26 12:34:02;;;;;;;2.10;0.73;;;;;;;15.49;100.00;97954.59;15275828;19;20014;-58
2023/07/26 12:39:27;;;;;;;2.30;0.70;;;;;;;15.56;100.00;97962.78;15271771;19;20011;-58
2023/07/26 12:44:55;;;;;;;0.70;0.50;;;;;;;15.70;100.00;97947.34;15267965;19;20011;-59
2023/07/26 12:50:21;;;;;;;1.92;0.30;;;;;;;15.93;100.00;97952.44;15272156;19;20800;-59
2023/07/26 12:55:45;;;;;;;0.50;0.50;;;;;;;16.26;100.00;97943.44;15267188;19;20054;-58
2023/07/26 13:01:13;;;;;;;2.05;0.40;;;;;;;16.63;100.00;97951.13;15287778;19;20010;-59
2023/07/26 13:06:37;;;;;;;1.27;0.60;;;;;;;16.74;100.00;97942.31;15286923;19;20024;-59
2023/07/26 13:12:02;;;;;;;0.70;0.60;;;;;;;16.93;100.00;97940.59;15287944;19;20014;-60
2023/07/26 13:17:29;;;;;;;0.75;0.65;;;;;;;17.23;100.00;97944.69;15283946;19;20025;-56
2023/07/26 13:22:54;;;;;;;1.45;0.50;;;;;;;17.48;100.00;97935.78;15288699;19;20006;-58
2023/07/26 13:28:18;;;;;;;1.75;0.65;;;;;;;17.29;100.00;97923.94;15278054;19;20015;-56
2023/07/26 13:33:46;;;;;;;0.40;0.40;;;;;;;17.50;100.00;97926.34;15287941;19;20010;-55
2023/07/26 13:39:19;;;;;;;2.25;0.50;;;;;;;17.82;100.00;97928.22;15282379;19;20645;-58
2023/07/26 13:44:50;;;;;;;0.95;0.50;;;;;;;18.20;100.00;97931.94;15282895;19;20014;-56
2023/07/26 13:50:18;;;;;;;0.52;0.50;;;;;;;18.31;100.00;97932.06;15285973;19;20017;-59
2023/07/26 13:55:42;;;;;;;0.60;0.43;;;;;;;18.50;100.00;97929.38;15281602;19;20018;-54
2023/07/26 14:01:07;;;;;;;4.05;0.60;;;;;;;18.22;100.00;97929.84;15279923;19;20018;-53
2023/07/26 14:06:35;;;;;;;0.95;0.52;;;;;;;18.72;100.00;97918.88;15276461;19;20044;-53
2023/07/26 14:12:00;;;;;;;0.73;0.40;;;;;;;18.53;100.00;97925.34;15281683;19;20018;-53
2023/07/26 14:17:24;;;;;;;5.35;0.77;;;;;;;18.64;100.00;97927.34;15278967;19;20520;-57
2023/07/26 14:22:53;;;;;;;3.13;0.50;;;;;;;18.84;100.00;97927.13;15282943;19;20022;-57
2023/07/26 14:28:17;;;;;;;3.15;0.40;;;;;;;19.05;100.00;97917.69;15281500;19;21183;-55
2023/07/26 14:33:43;;;;;;;0.85;0.50;;;;;;;19.16;100.00;97917.97;15277586;19;20015;-58
2023/07/26 14:39:10;;;;;;;0.55;0.50;;;;;;;19.42;100.00;97921.44;15279066;19;20041;-56
2023/07/26 14:44:35;;;;;;;1.50;0.60;;;;;;;19.49;100.00;97923.00;15278808;19;20018;-58
2023/07/26 14:49:59;;;;;;;1.73;0.50;;;;;;;19.45;100.00;97920.97;15281784;19;20014;-54
2023/07/26 14:55:28;;;;;;;2.38;0.60;;;;;;;19.08;100.00;97939.06;15280407;19;20018;-58
2023/07/26 15:00:52;;;;;;;0.75;0.40;;;;;;;19.04;100.00;97937.84;15279967;19;20467;-55
2023/07/26 15:06:17;;;;;;;0.45;0.40;;;;;;;19.08;100.00;97932.75;15272581;19;20017;-57
2023/07/26 15:11:44;;;;;;;0.80;0.50;;;;;;;18.71;100.00;97939.03;15274992;19;20783;-58
2023/07/26 15:17:09;;;;;;;0.68;0.55;;;;;;;18.44;100.00;97938.47;15276263;19;20022;-56
2023/07/26 15:22:34;;;;;;;0.73;0.50;;;;;;;18.33;100.00;97942.75;15277077;19;20010;-59
2023/07/26 15:28:03;;;;;;;0.50;0.40;;;;;;;18.47;100.00;97947.03;15273002;19;20030;-56
2023/07/26 15:33:29;;;;;;;0.65;0.60;;;;;;;18.85;100.00;97944.34;15276671;19;20018;-59
2023/07/26 15:39:00;;;;;;;0.40;0.32;;;;;;;19.53;100.00;97939.75;15252250;19;20024;-56
2023/07/26 15:44:30;;;;;;;1.05;0.50;;;;;;;19.75;100.00;97944.72;15275814;19;20102;-54
2023/07/26 15:49:54;;;;;;;2.97;0.52;;;;;;;19.79;100.00;97949.47;15274220;19;20039;-53
2023/07/26 15:55:32;;;;;;;2.13;0.70;;;;;;;20.06;99.61;97946.38;15275284;19;20025;-54
2023/07/26 16:01:00;;;;;;;1.95;0.65;;;;;;;20.30;100.00;97955.44;15277319;19;20016;-57
2023/07/26 16:06:25;;;;;;;0.88;0.52;;;;;;;20.09;100.00;97947.78;15273023;19;20022;-52
2023/07/26 16:12:09;;;;;;;0.60;0.50;;;;;;;19.62;100.00;97943.81;15269918;19;20014;-52
2023/07/26 16:17:40;;;;;;;0.30;0.30;;;;;;;19.66;90.11;97945.03;15271888;19;20649;-56
2023/07/26 16:23:07;;;;;;;0.50;0.30;;;;;;;19.61;96.84;97944.91;15272418;19;20029;-53
2023/07/26 16:28:32;;;;;;;0.70;0.40;;;;;;;19.62;83.29;97951.22;15271507;19;20020;-55
2023/07/26 16:33:59;;;;;;;0.43;0.40;;;;;;;19.83;85.88;97947.09;15288628;19;20026;-58
2023/07/26 16:39:30;;;;;;;0.55;0.50;;;;;;;20.09;88.10;97948.66;15283930;19;20019;-57
2023/07/26 16:44:55;;;;;;;1.65;0.55;;;;;;;20.02;80.25;97937.81;15285671;19;20014;-55
2023/07/26 16:50:22;;;;;;;0.80;0.47;;;;;;;19.85;84.57;97955.91;15286566;19;20023;-57
2023/07/26 16:55:50;;;;;;;1.15;0.43;;;;;;;19.59;88.01;97944.28;15283978;19;20018;-55
2023/07/26 17:01:16;;;;;;;0.55;0.50;;;;;;;18.92;96.25;97953.28;15286400;19;20044;-57
2023/07/26 17:06:44;;;;;;;0.65;0.60;;;;;;;18.65;94.15;97961.75;15283593;19;20029;-53
2023/07/26 17:12:09;;;;;;;0.73;0.50;;;;;;;18.66;100.00;97963.41;15276493;19;20026;-52
2023/07/26 17:17:33;;;;;;;1.55;0.50;;;;;;;18.89;91.52;97956.47;15276063;19;20018;-53
2023/07/26 17:23:00;;;;;;;1.05;0.43;;;;;;;18.96;97.72;97957.28;15283894;19;20014;-53
2023/07/26 17:28:25;;;;;;;0.82;0.60;;;;;;;18.74;100.00;97957.69;15280088;19;20014;-54
2023/07/26 17:33:49;;;;;;;1.55;0.50;;;;;;;18.71;100.00;97968.19;15282153;19;20021;-52
2023/07/26 17:39:24;;;;;;;0.80;0.65;;;;;;;18.27;99.54;97987.28;15279675;19;20039;-52
2023/07/26 17:44:49;;;;;;;0.80;0.60;;;;;;;17.81;100.00;97979.19;15281784;19;20082;-55
2023/07/26 17:50:15;;;;;;;0.82;0.50;;;;;;;17.51;100.00;97984.38;15279865;19;20619;-55
2023/07/26 17:55:42;;;;;;;0.50;0.50;;;;;;;17.24;100.00;97993.47;15280949;19;20371;-54
2023/07/26 18:01:08;;;;;;;0.73;0.50;;;;;;;17.05;100.00;97986.22;15284641;19;20021;-52
2023/07/26 18:06:32;;;;;;;0.60;0.45;;;;;;;16.96;100.00;97991.06;15278691;19;20037;-52
2023/07/26 18:12:02;;;;;;;0.73;0.60;;;;;;;17.02;100.00;97995.66;15283187;19;20018;-55
2023/07/26 18:17:27;;;;;;;1.10;0.60;;;;;;;16.91;100.00;98007.97;15279528;19;20014;-54
2023/07/26 18:22:52;;;;;;;0.30;0.30;;;;;;;16.76;100.00;98007.38;15277089;19;20511;-52
2023/07/26 18:28:19;;;;;;;0.52;0.50;;;;;;;16.62;100.00;98009.28;15274761;19;20036;-54
2023/07/26 18:33:47;;;;;;;0.77;0.50;;;;;;;16.53;100.00;98019.53;15278481;19;20018;-52
2023/07/26 18:39:18;;;;;;;0.50;0.50;;;;;;;16.40;100.00;98016.84;15274923;19;20024;-55
2023/07/26 18:44:45;;;;;;;0.65;0.63;;;;;;;16.30;100.00;98028.94;15279807;19;20028;-53
2023/07/26 18:50:10;;;;;;;1.70;0.60;;;;;;;16.20;100.00;98039.38;15280092;19;20058;-52
2023/07/26 18:55:34;;;;;;;1.55;0.60;;;;;;;16.14;100.00;98043.78;15270399;19;20018;-50
2023/07/26 19:01:02;;;;;;;1.20;0.60;;;;;;;16.12;100.00;98037.69;15270508;19;20021;-49
2023/07/26 19:06:26;;;;;;;0.85;0.55;;;;;;;16.04;100.00;98051.50;15273034;19;21296;-47
2023/07/26 19:11:51;;;;;;;0.82;0.40;;;;;;;15.95;100.00;98058.97;15274749;19;20086;-48
2023/07/26 19:17:19;;;;;;;0.63;0.50;;;;;;;15.84;100.00;98059.56;15271540;19;20043;-48
2023/07/26 19:22:44;;;;;;;0.60;0.60;;;;;;;15.73;100.00;98055.56;15274852;19;20014;-47
2023/07/26 19:28:08;;;;;;;0.68;0.68;;;;;;;15.53;100.00;98069.06;15272798;19;20611;-49
2023/07/26 19:33:36;;;;;;;2.70;0.52;;;;;;;15.34;100.00;98079.63;15273466;19;20029;-49
2023/07/26 19:39:07;;;;;;;0.60;0.60;;;;;;;15.20;100.00;98088.72;15272658;19;20058;-50
2023/07/26 19:44:31;;;;;;;0.60;0.60;;;;;;;15.04;100.00;98079.84;15274051;19;20030;-46
2023/07/26 19:49:59;;;;;;;0.60;0.60;;;;;;;14.93;100.00;98080.41;15275517;19;20014;-49
2023/07/26 19:55:23;;;;;;;0.60;0.60;;;;;;;14.83;100.00;98086.16;15269169;19;20093;-48
2023/07/26 20:00:49;;;;;;;2.60;0.60;;;;;;;14.73;100.00;98094.66;15274744;19;20021;-49
2023/07/26 20:06:16;;;;;;;1.63;0.60;;;;;;;14.65;100.00;98097.44;15250434;19;20781;-48
2023/07/26 20:11:42;;;;;;;0.98;0.88;;;;;;;14.57;100.00;98097.59;15273332;19;20597;-46
2023/07/26 20:17:07;;;;;;;0.70;0.70;;;;;;;14.47;100.00;98106.91;15271766;19;20026;-46
2023/07/26 20:22:35;;;;;;;0.90;0.88;;;;;;;14.38;100.00;98113.50;15272686;19;20021;-49
2023/07/26 20:27:59;;;;;;;1.13;0.90;;;;;;;14.29;100.00;98122.75;15266017;19;20820;-48
2023/07/26 20:33:17;;;;;;;0.60;0.60;;;;;;;14.24;100.00;98119.81;15273978;19;20021;-48
2023/07/26 20:38:45;;;;;;;0.95;0.63;;;;;;;14.22;100.00;98133.56;15269397;19;20046;-48
2023/07/26 20:44:10;;;;;;;1.83;0.80;;;;;;;14.18;100.00;98143.91;15269803;19;20037;-53
2023/07/26 20:49:35;;;;;;;1.05;0.75;;;;;;;14.16;100.00;98139.72;15273001;19;20014;-53
2023/07/26 20:55:02;;;;;;;1.20;0.75;;;;;;;14.15;100.00;98146.16;15274085;19;20023;-51
2023/07/26 21:00:28;;;;;;;0.80;0.80;;;;;;;14.12;100.00;98143.84;15271946;19;20014;-52
2023/07/26 21:05:52;;;;;;;1.38;0.70;;;;;;;14.08;100.00;98143.38;15272630;19;20007;-53
2023/07/26 21:11:24;;;;;;;1.52;1.00;;;;;;;14.05;100.00;98143.78;15274906;19;20398;-53
2023/07/26 21:16:54;;;;;;;1.40;0.80;;;;;;;13.99;100.00;98136.41;15272160;19;20746;-51
2023/07/26 21:22:21;;;;;;;1.48;0.80;;;;;;;13.93;100.00;98145.31;15283644;19;20029;-50
2023/07/26 21:27:48;;;;;;;1.27;0.90;;;;;;;13.86;100.00;98148.75;15280137;19;20013;-53
2023/07/26 21:33:13;;;;;;;1.20;0.70;;;;;;;13.79;100.00;98155.97;15282783;19;20475;-50
2023/07/26 21:38:37;;;;;;;1.27;0.80;;;;;;;13.69;100.00;98148.13;15280688;19;20014;-52
2023/07/26 21:44:05;;;;;;;0.95;0.70;;;;;;;13.59;100.00;98144.88;15286047;19;20014;-50
2023/07/26 21:49:29;;;;;;;1.70;0.80;;;;;;;13.46;100.00;98159.06;15282338;19;20655;-52
2023/07/26 21:54:54;;;;;;;1.63;1.00;;;;;;;13.35;100.00;98157.63;15286376;19;20018;-51
2023/07/26 22:00:21;;;;;;;0.80;0.80;;;;;;;13.31;100.00;98158.19;15287790;19;20018;-50
2023/07/26 22:05:46;;;;;;;3.45;1.02;;;;;;;13.31;100.00;98152.78;15280341;19;20011;-53
2023/07/26 22:11:11;;;;;;;1.23;0.77;;;;;;;13.29;100.00;98154.81;15286965;19;20014;-51
2023/07/26 22:16:38;;;;;;;1.17;0.88;;;;;;;13.26;100.00;98161.44;15283676;19;20639;-49
2023/07/26 22:22:03;;;;;;;1.13;0.80;;;;;;;13.21;100.00;98153.88;15288506;19;20121;-49
2023/07/26 22:27:27;;;;;;;1.00;0.68;;;;;;;13.18;100.00;98148.84;15292203;19;20034;-54
2023/07/26 22:32:54;;;;;;;1.00;0.88;;;;;;;13.17;100.00;98154.44;15290188;19;20021;-51
2023/07/26 22:38:26;;;;;;;0.90;0.90;;;;;;;13.15;100.00;98151.91;15282847;19;20029;-52
2023/07/26 22:43:51;;;;;;;1.13;1.00;;;;;;;13.13;100.00;98162.06;15288811;19;20014;-51
2023/07/26 22:49:18;;;;;;;0.88;0.88;;;;;;;13.10;100.00;98149.75;15287046;19;20028;-54
2023/07/26 22:54:42;;;;;;;1.00;0.90;;;;;;;13.08;100.00;98145.56;15290282;19;20021;-50
2023/07/26 23:00:09;;;;;;;1.17;1.00;;;;;;;13.05;100.00;98151.34;15285150;19;20474;-51
2023/07/26 23:05:36;;;;;;;1.20;0.90;;;;;;;13.03;100.00;98153.38;15285085;19;20031;-52
2023/07/26 23:11:06;;;;;;;1.27;0.90;;;;;;;13.00;100.00;98143.78;15281883;19;20014;-49
2023/07/26 23:16:30;;;;;;;1.02;0.90;;;;;;;13.01;100.00;98150.00;15284669;19;20010;-52
2023/07/26 23:22:00;;;;;;;2.15;0.98;;;;;;;13.00;100.00;98149.19;15282333;19;20025;-49
2023/07/26 23:27:27;;;;;;;1.38;0.98;;;;;;;12.98;100.00;98150.41;15277808;19;20014;-50
2023/07/26 23:32:53;;;;;;;1.08;0.80;;;;;;;12.95;100.00;98155.16;15280209;19;20017;-52
2023/07/26 23:38:22;;;;;;;1.05;0.80;;;;;;;12.90;100.00;98151.31;15276711;19;20082;-50
2023/07/26 23:43:47;;;;;;;0.85;0.85;;;;;;;12.85;100.00;98151.88;15274798;19;20373;-50
2023/07/26 23:49:12;;;;;;;1.20;0.80;;;;;;;12.78;100.00;98150.91;15277413;19;20025;-49
2023/07/26 23:54:40;;;;;;;1.35;0.90;;;;;;;12.75;100.00;98148.59;15277349;19;20082;-50
